Time;durP1;ratioP1;P1;durP2;ratioP2;P2;SDS_P1;SDS_P2;PMS_P1;PMS_P2;Temp;Humidity;BMP_temperature;BMP_pressure;BME280_temperature;BME280_humidity;BME280_pressure;Samples;Min_cycle;Max_cycle;Signal;HPM_P1;HPM_P2
2022/01/10 00:00:37;;;;;;;28.87;6.30;;;2.80;99.90;;;;;;5049422;28;20052;-37
2022/01/10 00:03:03;;;;;;;27.53;5.90;;;2.70;99.90;;;;;;5046277;28;20480;-37
2022/01/10 00:05:29;;;;;;;25.13;5.67;;;2.80;99.90;;;;;;5049548;28;20493;-38
2022/01/10 00:07:55;;;;;;;21.07;6.40;;;2.70;99.90;;;;;;5027431;28;20373;-37
2022/01/10 00:10:21;;;;;;;28.67;5.97;;;2.70;99.90;;;;;;5027719;28;20136;-37
2022/01/10 00:12:46;;;;;;;21.30;5.87;;;2.70;99.90;;;;;;5043776;28;20064;-37
2022/01/10 00:15:15;;;;;;;22.70;5.47;;;2.70;99.90;;;;;;5044447;28;20151;-38
2022/01/10 00:17:42;;;;;;;27.20;5.40;;;2.60;99.90;;;;;;5029347;28;20048;-37
2022/01/10 00:20:10;;;;;;;21.57;5.30;;;2.60;99.90;;;;;;5042369;28;20119;-37
2022/01/10 00:22:36;;;;;;;22.87;5.47;;;2.50;99.90;;;;;;5044232;28;20045;-37
2022/01/10 00:25:04;;;;;;;32.03;5.97;;;2.50;99.90;;;;;;5043144;28;20116;-35
2022/01/10 00:27:30;;;;;;;19.57;5.10;;;2.50;99.90;;;;;;5028592;28;20041;-37
2022/01/10 00:29:56;;;;;;;20.53;5.60;;;2.50;99.90;;;;;;5031286;28;20059;-37
2022/01/10 00:32:23;;;;;;;23.23;5.43;;;2.40;99.90;;;;;;5043764;28;20041;-36
2022/01/10 00:34:49;;;;;;;19.23;5.30;;;2.40;99.90;;;;;;5045869;28;20419;-35
2022/01/10 00:37:15;;;;;;;17.83;5.27;;;2.40;99.90;;;;;;5031383;28;20051;-37
2022/01/10 00:39:41;;;;;;;21.23;5.63;;;2.40;99.90;;;;;;5025864;28;20404;-37
2022/01/10 00:42:06;;;;;;;20.23;4.77;;;2.40;99.90;;;;;;5025121;28;20085;-36
2022/01/10 00:44:38;;;;;;;22.57;4.97;;;2.30;99.90;;;;;;5029683;28;20045;-36
2022/01/10 00:47:04;;;;;;;21.83;5.07;;;2.30;99.90;;;;;;5032679;28;20055;-43
2022/01/10 00:49:30;;;;;;;17.47;4.47;;;2.30;99.90;;;;;;5047380;28;20098;-37
2022/01/10 00:51:55;;;;;;;18.43;4.43;;;2.20;99.90;;;;;;5052962;28;20045;-37
2022/01/10 00:54:21;;;;;;;20.63;5.43;;;2.20;99.90;;;;;;5048126;28;20451;-37
2022/01/10 00:56:47;;;;;;;24.03;5.37;;;2.20;99.90;;;;;;5032929;28;20048;-36
2022/01/10 00:59:12;;;;;;;24.37;5.87;;;2.20;99.90;;;;;;5046442;28;20051;-37
2022/01/10 01:01:38;;;;;;;29.63;5.93;;;2.10;99.90;;;;;;5050119;28;20096;-38
2022/01/10 01:04:04;;;;;;;22.10;6.00;;;2.10;99.90;;;;;;5047397;28;20047;-37
2022/01/10 01:06:30;;;;;;;19.17;5.90;;;2.10;99.90;;;;;;5035006;28;20051;-37
2022/01/10 01:09:00;;;;;;;17.93;5.00;;;2.10;99.90;;;;;;5045028;28;20389;-38
2022/01/10 01:14:05;;;;;;;22.67;5.75;;;2.00;99.90;;;;;;5046207;28;20041;-37
2022/01/10 01:24:31;;;;;;;17.67;5.30;;;2.00;99.90;;;;;;5046829;28;20095;-37
2022/01/10 01:26:57;;;;;;;24.53;5.40;;;1.90;99.90;;;;;;5032253;28;20400;-37
2022/01/10 01:29:26;;;;;;;20.53;5.50;;;1.90;99.90;;;;;;5032529;28;20049;-37
2022/01/10 01:31:52;;;;;;;28.77;6.10;;;1.90;99.90;;;;;;5050500;28;20048;-36
2022/01/10 01:34:20;;;;;;;19.03;5.33;;;1.90;99.90;;;;;;5044363;28;20068;-36
2022/01/10 01:36:51;;;;;;;29.20;6.27;;;1.90;99.90;;;;;;5035122;28;20037;-37
2022/01/10 01:39:22;;;;;;;17.30;5.23;;;1.90;99.90;;;;;;5046468;28;20108;-36
2022/01/10 01:41:50;;;;;;;15.95;4.15;;;1.80;99.90;;;;;;5046519;28;20120;-36
2022/01/10 01:44:15;;;;;;;17.40;5.07;;;1.80;99.90;;;;;;5046043;28;20049;-37
2022/01/10 01:46:42;;;;;;;24.37;5.07;;;1.70;99.90;;;;;;5033636;28;20569;-37
2022/01/10 01:49:09;;;;;;;14.60;5.40;;;1.70;99.90;;;;;;5043752;28;20040;-37
2022/01/10 01:51:36;;;;;;;21.00;6.17;;;1.70;99.90;;;;;;5052393;28;20079;-37
2022/01/10 01:54:03;;;;;;;21.60;5.80;;;1.70;99.90;;;;;;5041224;28;20542;-37
2022/01/10 01:56:29;;;;;;;19.40;5.47;;;1.60;99.90;;;;;;5034637;28;20049;-36
2022/01/10 01:58:55;;;;;;;25.10;6.73;;;1.60;99.90;;;;;;5024407;28;20041;-36
2022/01/10 02:01:22;;;;;;;19.37;6.77;;;1.60;99.90;;;;;;5048495;28;20124;-33
2022/01/10 02:03:49;;;;;;;19.47;6.97;;;1.60;99.90;;;;;;5046652;28;20427;-36
2022/01/10 02:06:15;;;;;;;22.93;7.33;;;1.50;99.90;;;;;;5019210;28;20045;-37
2022/01/10 02:08:42;;;;;;;21.80;7.20;;;1.50;99.90;;;;;;5043952;28;20060;-37
2022/01/10 02:11:10;;;;;;;28.20;7.77;;;1.50;99.90;;;;;;5047592;28;20539;-36
2022/01/10 02:13:37;;;;;;;23.70;7.57;;;1.40;99.90;;;;;;5045265;28;20049;-37
2022/01/10 02:16:05;;;;;;;30.63;7.60;;;1.40;99.90;;;;;;5048909;28;20083;-36
2022/01/10 02:18:32;;;;;;;26.07;7.60;;;1.40;99.90;;;;;;5036343;28;20044;-37
2022/01/10 02:21:01;;;;;;;23.77;7.43;;;1.40;99.90;;;;;;5045605;28;20524;-37
2022/01/10 02:23:30;;;;;;;28.93;8.20;;;1.40;99.90;;;;;;5045590;28;20131;-36
2022/01/10 02:25:56;;;;;;;28.70;7.63;;;1.40;99.90;;;;;;5045903;28;20044;-36
2022/01/10 02:28:22;;;;;;;24.07;7.93;;;1.40;99.90;;;;;;5029952;28;20120;-35
2022/01/10 02:30:55;;;;;;;24.10;6.80;;;1.40;99.90;;;;;;5047216;28;20094;-36
2022/01/10 02:33:28;;;;;;;23.70;7.17;;;1.40;99.90;;;;;;5045027;28;20083;-36
2022/01/10 02:36:05;;;;;;;26.90;7.40;;;1.40;99.90;;;;;;5049213;28;20128;-36
2022/01/10 02:38:31;;;;;;;22.47;6.60;;;1.40;99.90;;;;;;5038680;28;20048;-36
2022/01/10 02:40:58;;;;;;;24.93;7.60;;;1.30;99.90;;;;;;5027017;28;20045;-37
2022/01/10 02:43:24;;;;;;;23.53;7.97;;;1.30;99.90;;;;;;5044594;28;20041;-37
2022/01/10 02:45:50;;;;;;;35.97;7.40;;;1.30;99.90;;;;;;5043722;28;20060;-37
2022/01/10 02:48:15;;;;;;;25.20;7.40;;;1.30;99.90;;;;;;5032124;28;20040;-35
2022/01/10 02:50:41;;;;;;;28.23;7.63;;;1.30;99.90;;;;;;5044988;28;20404;-36
2022/01/10 02:53:07;;;;;;;32.60;7.67;;;1.30;99.90;;;;;;5048908;28;20049;-36
2022/01/10 02:55:33;;;;;;;24.33;7.77;;;1.30;99.90;;;;;;5027047;28;20064;-37
2022/01/10 02:57:59;;;;;;;23.93;7.70;;;1.30;99.90;;;;;;5029589;28;20052;-37
2022/01/10 03:00:26;;;;;;;27.93;8.17;;;1.30;99.90;;;;;;5043823;28;20045;-36
2022/01/10 03:02:54;;;;;;;26.37;8.03;;;1.30;99.90;;;;;;5048455;28;20067;-35
2022/01/10 03:05:21;;;;;;;28.80;7.53;;;1.30;99.90;;;;;;5049881;28;20041;-36
2022/01/10 03:07:50;;;;;;;22.80;7.70;;;1.30;99.90;;;;;;5028055;28;20041;-37
2022/01/10 03:10:16;;;;;;;29.60;8.47;;;1.30;99.90;;;;;;5047965;28;20049;-37
2022/01/10 03:12:42;;;;;;;26.20;7.50;;;1.20;99.90;;;;;;5045406;28;20060;-38
2022/01/10 03:15:09;;;;;;;30.97;7.60;;;1.20;99.90;;;;;;5043623;28;20049;-36
2022/01/10 03:17:36;;;;;;;30.23;8.57;;;1.20;99.90;;;;;;5029527;28;20562;-36
2022/01/10 03:20:03;;;;;;;26.87;8.43;;;1.20;99.90;;;;;;5047589;28;20686;-37
2022/01/10 03:22:31;;;;;;;27.80;8.60;;;1.20;99.90;;;;;;5044010;28;20040;-37
2022/01/10 03:24:57;;;;;;;31.20;9.10;;;1.20;99.90;;;;;;5027625;28;20053;-37
2022/01/10 03:27:24;;;;;;;24.37;8.70;;;1.20;99.90;;;;;;5029383;28;20502;-37
2022/01/10 03:29:50;;;;;;;31.63;9.73;;;1.20;99.90;;;;;;5045038;28;20132;-36
2022/01/10 03:32:16;;;;;;;35.47;9.57;;;1.20;99.90;;;;;;5046493;28;20575;-37
2022/01/10 03:34:42;;;;;;;27.33;9.70;;;1.10;99.90;;;;;;5047129;28;20056;-37
2022/01/10 03:37:09;;;;;;;35.90;10.27;;;1.10;99.90;;;;;;5032395;28;20036;-36
2022/01/10 03:39:35;;;;;;;29.97;9.60;;;1.10;99.90;;;;;;5009894;28;20477;-36
2022/01/10 03:42:01;;;;;;;28.93;9.17;;;1.10;99.90;;;;;;5026478;28;20052;-36
2022/01/10 03:44:27;;;;;;;24.17;9.20;;;1.10;99.90;;;;;;5043747;28;20115;-36
2022/01/10 03:46:53;;;;;;;31.60;9.40;;;1.10;99.90;;;;;;5030161;28;20125;-36
2022/01/10 03:49:19;;;;;;;30.03;9.73;;;1.10;99.90;;;;;;5043926;28;20037;-37
2022/01/10 03:51:46;;;;;;;33.23;10.13;;;1.10;99.90;;;;;;5051294;28;20042;-37
2022/01/10 03:54:11;;;;;;;33.03;9.97;;;1.10;99.90;;;;;;5043393;28;20131;-37
2022/01/10 03:56:37;;;;;;;31.07;10.07;;;1.10;99.90;;;;;;5031634;28;20153;-37
2022/01/10 03:59:04;;;;;;;29.13;10.23;;;1.10;99.90;;;;;;5023808;28;20044;-35
2022/01/10 04:01:30;;;;;;;39.23;11.27;;;1.10;99.90;;;;;;5044842;28;20053;-37
2022/01/10 04:03:56;;;;;;;27.40;10.20;;;1.00;99.90;;;;;;5045876;28;20231;-37
2022/01/10 04:06:22;;;;;;;29.07;10.30;;;1.00;99.90;;;;;;5016327;28;20049;-36
2022/01/10 04:08:48;;;;;;;28.13;10.53;;;1.10;99.90;;;;;;5043939;28;20194;-37
2022/01/10 04:11:14;;;;;;;36.83;10.97;;;1.10;99.90;;;;;;5046032;28;20660;-37
2022/01/10 04:13:40;;;;;;;31.43;11.43;;;1.00;99.90;;;;;;5025422;28;20396;-36
2022/01/10 04:16:06;;;;;;;40.17;11.47;;;1.10;99.90;;;;;;5042789;28;20072;-36
2022/01/10 04:18:32;;;;;;;31.37;11.47;;;1.00;99.90;;;;;;5037915;28;20041;-37
2022/01/10 04:20:59;;;;;;;31.87;11.63;;;1.00;99.90;;;;;;5048415;28;20500;-35
2022/01/10 04:23:25;;;;;;;36.67;12.33;;;1.10;99.90;;;;;;5048169;28;20099;-36
2022/01/10 04:25:51;;;;;;;33.17;12.60;;;1.10;99.90;;;;;;5047939;28;20077;-37
2022/01/10 04:28:17;;;;;;;34.63;12.20;;;1.10;99.90;;;;;;5032660;28;20152;-36
2022/01/10 04:30:43;;;;;;;31.77;12.97;;;1.10;99.90;;;;;;5048333;28;20041;-37
2022/01/10 04:33:10;;;;;;;36.47;12.90;;;1.10;99.90;;;;;;5028762;28;20045;-37
2022/01/10 04:35:36;;;;;;;39.07;12.80;;;1.10;99.90;;;;;;5051969;28;20047;-36
2022/01/10 04:38:02;;;;;;;37.17;13.23;;;1.10;99.90;;;;;;5034250;28;20555;-37
2022/01/10 04:40:28;;;;;;;43.63;14.13;;;1.10;99.90;;;;;;5047852;28;20397;-37
2022/01/10 04:42:53;;;;;;;41.87;14.23;;;1.10;99.90;;;;;;5046645;28;20128;-37
2022/01/10 04:45:19;;;;;;;35.47;14.03;;;1.10;99.90;;;;;;5049862;28;20266;-36
2022/01/10 04:47:45;;;;;;;37.23;15.03;;;1.10;99.90;;;;;;5034931;28;20053;-36
2022/01/10 04:52:46;;;;;;;39.47;14.20;;;1.10;99.90;;;;;;5053596;28;20130;-36
2022/01/10 04:55:12;;;;;;;38.73;14.87;;;1.10;99.90;;;;;;5046980;28;20563;-37
2022/01/10 04:57:38;;;;;;;37.23;15.37;;;1.00;99.90;;;;;;5031935;28;20432;-34
2022/01/10 05:00:09;;;;;;;40.20;15.10;;;1.00;99.90;;;;;;5029222;28;20049;-36
2022/01/10 05:02:36;;;;;;;42.67;15.32;;;1.00;99.90;;;;;;5048588;28;20068;-35
2022/01/10 05:05:03;;;;;;;45.40;15.27;;;1.00;99.90;;;;;;5053106;28;20133;-36
2022/01/10 05:07:28;;;;;;;46.53;16.10;;;1.00;99.90;;;;;;5031835;28;20048;-37
2022/01/10 05:09:54;;;;;;;40.80;16.40;;;1.00;99.90;;;;;;5048759;28;20045;-36
2022/01/10 05:12:23;;;;;;;34.90;15.03;;;1.10;99.90;;;;;;5044583;28;20047;-36
2022/01/10 05:14:48;;;;;;;39.70;15.57;;;1.00;99.90;;;;;;5029441;28;20481;-36
2022/01/10 05:17:15;;;;;;;43.57;17.07;;;1.00;99.90;;;;;;5030216;28;20029;-35
2022/01/10 05:19:41;;;;;;;37.13;16.50;;;1.00;99.90;;;;;;5049411;28;20353;-36
2022/01/10 05:22:07;;;;;;;36.63;16.20;;;1.00;99.90;;;;;;5046437;28;20077;-33
2022/01/10 05:24:32;;;;;;;38.17;16.67;;;1.00;99.90;;;;;;5047901;28;20049;-36
2022/01/10 05:26:58;;;;;;;44.37;17.07;;;1.00;99.90;;;;;;5013996;28;20139;-36
2022/01/10 05:29:24;;;;;;;40.57;17.83;;;1.00;99.90;;;;;;5028461;28;20041;-37
2022/01/10 05:31:49;;;;;;;43.97;17.13;;;1.00;99.90;;;;;;5044906;28;20052;-36
2022/01/10 05:34:15;;;;;;;43.67;18.33;;;1.00;99.90;;;;;;5048588;28;20087;-36
2022/01/10 05:36:41;;;;;;;42.60;18.77;;;1.00;99.90;;;;;;5038518;28;20590;-37
2022/01/10 05:39:07;;;;;;;43.17;17.90;;;1.00;99.90;;;;;;5047843;28;20043;-35
2022/01/10 05:41:34;;;;;;;50.30;18.00;;;1.00;99.90;;;;;;5046894;28;20049;-36
2022/01/10 05:44:00;;;;;;;50.83;19.17;;;1.00;99.90;;;;;;5030091;28;20132;-36
2022/01/10 05:46:26;;;;;;;55.70;19.77;;;0.90;99.90;;;;;;5018823;28;20510;-37
2022/01/10 05:48:53;;;;;;;41.53;18.50;;;0.90;99.90;;;;;;5026875;28;20044;-35
2022/01/10 05:51:20;;;;;;;45.17;20.23;;;0.90;99.90;;;;;;5048974;28;20041;-37
2022/01/10 05:53:47;;;;;;;56.47;21.17;;;0.90;99.90;;;;;;5049950;28;20049;-35
2022/01/10 05:56:12;;;;;;;48.03;21.03;;;0.90;99.90;;;;;;5036880;28;20047;-37
2022/01/10 05:58:38;;;;;;;47.90;21.53;;;0.90;99.90;;;;;;5039788;28;20429;-37
2022/01/10 06:01:04;;;;;;;49.57;22.30;;;1.00;99.90;;;;;;5047721;28;20040;-36
2022/01/10 06:03:30;;;;;;;51.03;21.93;;;0.90;99.90;;;;;;5044953;28;20055;-37
2022/01/10 06:05:56;;;;;;;51.33;22.27;;;0.90;99.90;;;;;;5045365;28;20519;-37
2022/01/10 06:08:22;;;;;;;51.40;21.43;;;0.90;99.90;;;;;;5027459;28;20052;-36
2022/01/10 06:10:47;;;;;;;51.00;22.10;;;0.90;99.90;;;;;;5045624;28;20427;-36
2022/01/10 06:13:13;;;;;;;50.43;23.47;;;0.90;99.90;;;;;;5053857;28;20052;-36
2022/01/10 06:15:41;;;;;;;51.83;22.20;;;0.90;99.90;;;;;;5054500;28;20040;-37
2022/01/10 06:18:07;;;;;;;51.63;22.97;;;0.90;99.90;;;;;;5044887;28;20044;-34
2022/01/10 06:20:33;;;;;;;48.60;23.50;;;0.90;99.90;;;;;;5061476;28;20472;-36
2022/01/10 06:22:59;;;;;;;57.20;22.60;;;0.90;99.90;;;;;;5058283;28;20053;-36
2022/01/10 06:25:26;;;;;;;51.60;24.60;;;0.80;99.90;;;;;;5053596;28;20045;-36
2022/01/10 06:27:52;;;;;;;60.63;24.67;;;0.90;99.90;;;;;;5028248;28;20037;-37
2022/01/10 06:30:17;;;;;;;55.53;24.37;;;0.80;99.90;;;;;;5044305;28;20337;-37
2022/01/10 06:32:43;;;;;;;48.27;23.93;;;0.80;99.90;;;;;;5045898;28;20043;-36
2022/01/10 06:35:10;;;;;;;52.37;24.47;;;0.80;99.90;;;;;;5048548;28;20377;-36
2022/01/10 06:37:35;;;;;;;47.20;23.67;;;0.80;99.90;;;;;;5039524;28;20411;-35
2022/01/10 06:40:04;;;;;;;51.23;22.03;;;0.80;99.90;;;;;;5048702;28;20045;-37
2022/01/10 06:42:29;;;;;;;49.90;23.87;;;0.80;99.90;;;;;;5050110;28;20052;-37
2022/01/10 06:44:55;;;;;;;56.40;24.33;;;0.80;99.90;;;;;;5045939;28;20032;-37
2022/01/10 06:47:20;;;;;;;51.53;25.23;;;0.80;99.90;;;;;;5030525;28;20128;-37
2022/01/10 06:49:46;;;;;;;51.80;23.57;;;0.80;99.90;;;;;;5043654;28;20472;-37
2022/01/10 06:52:12;;;;;;;52.00;23.03;;;0.80;99.90;;;;;;5033283;28;20080;-36
2022/01/10 06:54:38;;;;;;;50.20;23.03;;;0.80;99.90;;;;;;5049096;28;20195;-34
2022/01/10 06:57:04;;;;;;;46.40;21.93;;;0.70;99.90;;;;;;5029526;28;20040;-37
2022/01/10 06:59:29;;;;;;;50.97;23.40;;;0.70;99.90;;;;;;5026895;28;20068;-37
2022/01/10 07:01:57;;;;;;;50.97;20.57;;;0.70;99.90;;;;;;5047803;28;20076;-37
2022/01/10 07:04:23;;;;;;;47.83;17.93;;;0.60;99.90;;;;;;5044285;28;20044;-35
2022/01/10 07:06:49;;;;;;;75.10;22.43;;;0.60;99.90;;;;;;5035338;28;20119;-37
2022/01/10 07:09:15;;;;;;;65.63;24.87;;;0.50;99.90;;;;;;5027256;28;20139;-37
2022/01/10 07:11:40;;;;;;;41.80;19.50;;;0.50;99.90;;;;;;5048249;28;20130;-37
2022/01/10 07:14:07;;;;;;;32.90;14.83;;;0.40;99.90;;;;;;5042410;28;20045;-36
2022/01/10 07:16:34;;;;;;;24.80;15.07;;;0.30;99.90;;;;;;5014456;28;20056;-37
2022/01/10 07:19:00;;;;;;;23.33;14.13;;;0.30;99.90;;;;;;5042132;28;20573;-35
2022/01/10 07:21:26;;;;;;;25.13;17.07;;;0.30;99.90;;;;;;5045053;28;20053;-36
2022/01/10 07:23:52;;;;;;;31.17;17.20;;;0.20;99.90;;;;;;5047615;28;20033;-36
2022/01/10 07:26:17;;;;;;;28.37;17.53;;;0.20;99.90;;;;;;5034090;28;20122;-37
2022/01/10 07:28:43;;;;;;;35.57;18.67;;;0.20;99.90;;;;;;5039259;28;20075;-37
2022/01/10 07:31:09;;;;;;;45.33;21.30;;;0.20;99.90;;;;;;5046829;28;20048;-36
2022/01/10 07:33:35;;;;;;;38.07;19.40;;;0.20;99.90;;;;;;5054889;28;20049;-36
2022/01/10 07:36:01;;;;;;;40.33;19.93;;;0.20;99.90;;;;;;5051618;28;20053;-36
2022/01/10 07:38:27;;;;;;;37.57;19.87;;;0.20;99.90;;;;;;5030122;28;20128;-36
2022/01/10 07:40:53;;;;;;;40.23;21.10;;;0.20;99.90;;;;;;5042709;28;20056;-36
2022/01/10 07:43:19;;;;;;;40.63;21.77;;;0.20;99.90;;;;;;5027632;28;20115;-36
2022/01/10 07:45:44;;;;;;;41.00;21.80;;;0.20;99.90;;;;;;5044397;28;20052;-37
2022/01/10 07:48:10;;;;;;;41.17;20.97;;;0.20;99.90;;;;;;5028397;28;20041;-36
2022/01/10 07:50:36;;;;;;;39.63;21.53;;;0.20;99.90;;;;;;5043897;28;20053;-36
2022/01/10 07:53:01;;;;;;;41.63;22.50;;;0.20;99.90;;;;;;5050093;28;20456;-36
2022/01/10 07:55:27;;;;;;;39.73;21.93;;;0.20;99.90;;;;;;5048330;28;20165;-37
2022/01/10 07:57:53;;;;;;;42.70;22.57;;;0.20;99.90;;;;;;5034881;28;20061;-37
2022/01/10 08:00:19;;;;;;;38.03;20.27;;;0.20;99.90;;;;;;5048970;28;20134;-37
2022/01/10 08:02:45;;;;;;;38.83;21.20;;;0.20;99.90;;;;;;5026055;28;20055;-37
2022/01/10 08:05:11;;;;;;;38.53;19.83;;;0.10;99.90;;;;;;5040269;28;20043;-36
2022/01/10 08:07:37;;;;;;;40.80;20.63;;;0.10;99.90;;;;;;5021384;28;20218;-36
2022/01/10 08:10:04;;;;;;;41.67;21.33;;;0.00;99.90;;;;;;5037820;28;20037;-36
2022/01/10 08:12:31;;;;;;;43.37;21.80;;;0.00;99.90;;;;;;5055598;28;20095;-36
2022/01/10 08:14:57;;;;;;;35.83;21.67;;;0.00;99.90;;;;;;5041339;28;20052;-37
2022/01/10 08:17:23;;;;;;;38.17;22.83;;;0.00;99.90;;;;;;5044022;28;20781;-36
2022/01/10 08:19:49;;;;;;;37.17;20.97;;;0.00;99.90;;;;;;5056623;28;20044;-36
2022/01/10 08:22:14;;;;;;;30.80;18.97;;;0.00;99.90;;;;;;5058119;28;20048;-36
2022/01/10 08:24:40;;;;;;;31.87;17.90;;;0.00;99.90;;;;;;5061104;28;20381;-37
2022/01/10 08:27:06;;;;;;;35.07;18.67;;;-0.10;99.90;;;;;;5024219;28;20040;-35
2022/01/10 08:29:32;;;;;;;32.83;17.83;;;-0.10;99.90;;;;;;5059148;28;20408;-35
2022/01/10 08:31:58;;;;;;;31.30;17.30;;;-0.10;99.90;;;;;;5067767;28;21189;-36
2022/01/10 08:34:24;;;;;;;32.77;16.17;;;-0.20;99.90;;;;;;5066248;28;20063;-37
2022/01/10 08:36:51;;;;;;;22.23;15.23;;;-0.20;99.90;;;;;;5050018;28;20536;-36
2022/01/10 08:39:18;;;;;;;27.27;16.13;;;-0.30;99.90;;;;;;5059115;28;20079;-36
2022/01/10 08:41:43;;;;;;;28.10;15.13;;;-0.30;99.90;;;;;;5064145;28;20427;-37
2022/01/10 08:44:09;;;;;;;30.83;15.83;;;-0.30;99.90;;;;;;5042788;28;20044;-37
2022/01/10 08:46:35;;;;;;;41.07;18.13;;;-0.30;99.90;;;;;;5051675;28;20058;-36
2022/01/10 08:49:02;;;;;;;30.33;17.10;;;-0.40;99.90;;;;;;5045420;28;20661;-36
2022/01/10 08:51:29;;;;;;;27.23;17.00;;;-0.40;99.90;;;;;;5057270;28;20048;-37
2022/01/10 08:53:55;;;;;;;29.87;18.10;;;-0.40;99.90;;;;;;5036975;28;20036;-36
2022/01/10 08:56:20;;;;;;;35.83;20.07;;;-0.40;99.90;;;;;;5026359;28;20041;-36
2022/01/10 08:58:46;;;;;;;29.90;19.97;;;-0.50;99.90;;;;;;5053049;28;20041;-37
2022/01/10 09:01:12;;;;;;;26.77;17.77;;;-0.40;99.90;;;;;;5055079;28;20041;-37
2022/01/10 09:03:38;;;;;;;27.13;17.87;;;-0.40;99.90;;;;;;5054088;28;20045;-37
2022/01/10 09:06:04;;;;;;;28.93;17.90;;;-0.50;99.90;;;;;;5057887;28;20048;-35
2022/01/10 09:08:33;;;;;;;33.00;19.47;;;-0.50;99.90;;;;;;5039691;28;20048;-37
2022/01/10 09:11:00;;;;;;;33.27;20.23;;;-0.50;99.90;;;;;;5056256;28;20066;-36
2022/01/10 09:13:26;;;;;;;37.10;20.77;;;-0.50;99.90;;;;;;5054624;28;20693;-36
2022/01/10 09:15:52;;;;;;;38.67;21.03;;;-0.40;99.90;;;;;;5056553;28;20044;-36
2022/01/10 09:18:17;;;;;;;36.17;21.70;;;-0.40;99.90;;;;;;5041379;28;20504;-35
2022/01/10 09:20:44;;;;;;;37.43;21.33;;;-0.40;99.90;;;;;;5060954;28;20061;-37
2022/01/10 09:23:10;;;;;;;41.17;22.53;;;-0.40;99.90;;;;;;5055726;28;20043;-36
2022/01/10 09:25:36;;;;;;;41.70;22.73;;;-0.40;99.90;;;;;;5054033;28;20048;-36
2022/01/10 09:28:02;;;;;;;36.47;21.93;;;-0.30;99.90;;;;;;5040132;28;20049;-36
2022/01/10 09:30:28;;;;;;;42.43;24.37;;;-0.30;99.90;;;;;;5055795;28;20044;-36
2022/01/10 09:32:54;;;;;;;42.03;24.60;;;-0.30;99.90;;;;;;5056495;28;20069;-36
2022/01/10 09:35:21;;;;;;;39.30;24.13;;;-0.20;99.90;;;;;;5058733;28;20052;-37
2022/01/10 09:37:48;;;;;;;39.07;25.53;;;-0.20;99.90;;;;;;5041681;28;20091;-35
2022/01/10 09:40:14;;;;;;;49.80;26.97;;;-0.20;99.90;;;;;;5054438;28;20045;-36
2022/01/10 09:42:41;;;;;;;49.97;28.87;;;-0.10;99.90;;;;;;5055785;28;20071;-37
2022/01/10 09:45:08;;;;;;;55.03;29.93;;;-0.10;99.90;;;;;;5027386;28;20044;-35
2022/01/10 09:47:34;;;;;;;55.83;30.07;;;0.00;99.90;;;;;;5019146;28;20114;-36
2022/01/10 09:50:00;;;;;;;48.70;29.30;;;0.00;99.90;;;;;;5035028;28;20490;-37
2022/01/10 09:52:27;;;;;;;52.60;29.03;;;0.10;99.90;;;;;;5054176;28;20073;-36
2022/01/10 09:54:53;;;;;;;52.20;29.70;;;0.10;99.90;;;;;;5033995;28;20531;-37
2022/01/10 09:57:22;;;;;;;50.17;30.60;;;0.20;99.90;;;;;;5030640;28;20049;-34
2022/01/10 09:59:48;;;;;;;58.40;32.27;;;0.30;99.90;;;;;;5038343;28;20037;-37
2022/01/10 10:02:18;;;;;;;58.80;32.87;;;0.30;99.90;;;;;;5056171;28;20422;-36
2022/01/10 10:04:44;;;;;;;61.47;34.77;;;0.40;99.90;;;;;;5033917;28;20330;-36
2022/01/10 10:07:11;;;;;;;71.50;36.57;;;0.50;99.90;;;;;;5040295;28;20044;-36
2022/01/10 10:09:37;;;;;;;75.10;37.93;;;0.60;99.90;;;;;;5055305;28;20098;-37
2022/01/10 10:12:04;;;;;;;68.43;38.90;;;0.70;99.90;;;;;;5051939;28;20466;-37
2022/01/10 10:14:31;;;;;;;71.87;38.57;;;0.80;99.90;;;;;;5058041;28;20709;-36
2022/01/10 10:16:57;;;;;;;76.77;37.90;;;0.90;99.90;;;;;;5023473;28;20039;-37
2022/01/10 10:19:27;;;;;;;73.03;37.30;;;1.00;99.90;;;;;;5054513;28;20048;-37
2022/01/10 10:21:54;;;;;;;68.57;38.23;;;1.10;99.90;;;;;;5051723;28;20064;-38
2022/01/10 10:24:20;;;;;;;68.83;37.90;;;1.30;99.90;;;;;;5056827;28;20068;-36
2022/01/10 10:26:46;;;;;;;64.97;35.63;;;1.50;99.90;;;;;;5039007;28;20098;-36
2022/01/10 10:29:17;;;;;;;58.67;35.20;;;1.70;99.90;;;;;;5033097;28;20428;-36
2022/01/10 10:31:52;;;;;;;59.93;32.03;;;1.70;99.90;;;;;;5051264;28;20041;-36
2022/01/10 10:34:24;;;;;;;57.47;31.57;;;1.90;99.90;;;;;;5041689;28;20055;-36
2022/01/10 10:37:08;;;;;;;51.85;29.17;;;2.00;99.90;;;;;;5048336;28;20529;-37
2022/01/10 10:39:36;;;;;;;53.13;29.60;;;2.30;99.90;;;;;;5057621;28;20056;-36
2022/01/10 10:42:04;;;;;;;45.00;29.20;;;2.50;99.90;;;;;;5062366;28;20040;-38
2022/01/10 10:44:32;;;;;;;45.03;26.77;;;2.70;99.90;;;;;;5059654;28;20044;-37
2022/01/10 10:46:58;;;;;;;42.63;26.73;;;2.90;99.90;;;;;;5043767;28;20499;-38
2022/01/10 10:49:33;;;;;;;42.00;24.37;;;3.10;99.90;;;;;;5053635;28;20526;-37
2022/01/10 10:52:00;;;;;;;37.87;23.43;;;3.20;99.90;;;;;;5056511;28;20094;-38
2022/01/10 10:54:28;;;;;;;36.30;23.60;;;3.40;99.90;;;;;;5052698;28;20041;-38
2022/01/10 10:56:54;;;;;;;35.83;21.87;;;3.60;99.90;;;;;;5041991;28;20048;-38
2022/01/10 10:59:24;;;;;;;38.13;20.40;;;3.80;99.90;;;;;;5056452;28;20188;-38
2022/01/10 11:01:51;;;;;;;33.27;19.20;;;3.90;99.90;;;;;;5052596;28;20040;-38
2022/01/10 11:04:16;;;;;;;29.33;19.80;;;4.10;99.90;;;;;;5051147;28;20440;-37
2022/01/10 11:06:43;;;;;;;33.67;19.17;;;4.20;99.90;;;;;;5023687;28;20047;-38
2022/01/10 11:09:12;;;;;;;32.67;19.13;;;4.20;99.90;;;;;;5055442;28;20060;-38
2022/01/10 11:11:38;;;;;;;32.03;18.50;;;4.40;99.90;;;;;;5055529;28;20059;-38
2022/01/10 11:14:04;;;;;;;34.67;19.07;;;4.50;99.90;;;;;;5056013;28;20044;-38
2022/01/10 11:16:31;;;;;;;30.17;18.83;;;4.60;99.90;;;;;;5043926;28;20033;-37
2022/01/10 11:18:57;;;;;;;35.40;19.70;;;4.60;99.90;;;;;;5051859;28;20090;-37
2022/01/10 11:21:24;;;;;;;32.73;20.03;;;4.70;99.90;;;;;;5025082;28;20168;-37
2022/01/10 11:23:52;;;;;;;37.00;19.83;;;4.80;99.90;;;;;;5055482;28;20040;-37
2022/01/10 11:26:18;;;;;;;34.20;20.13;;;4.90;99.90;;;;;;5040068;28;20510;-37
2022/01/10 11:28:53;;;;;;;33.63;19.90;;;5.00;99.90;;;;;;5047903;28;20040;-37
2022/01/10 11:31:26;;;;;;;35.60;19.87;;;5.00;99.90;;;;;;5053760;28;20043;-38
2022/01/10 11:33:53;;;;;;;35.47;19.00;;;5.20;99.90;;;;;;5050572;28;20106;-38
2022/01/10 11:36:24;;;;;;;34.43;20.43;;;5.20;99.90;;;;;;5040558;28;20500;-38
2022/01/10 11:38:56;;;;;;;31.63;18.83;;;5.30;99.90;;;;;;5027076;28;20069;-38
2022/01/10 11:41:24;;;;;;;33.45;19.63;;;5.40;99.90;;;;;;5051112;28;20048;-37
2022/01/10 11:44:11;;;;;;;32.30;20.13;;;5.50;99.90;;;;;;5053292;28;20604;-37
2022/01/10 11:46:50;;;;;;;33.20;20.17;;;5.50;99.90;;;;;;5038450;28;20103;-38
2022/01/10 11:49:21;;;;;;;29.63;20.27;;;5.50;99.90;;;;;;5033497;28;20470;-37
2022/01/10 11:51:50;;;;;;;29.60;19.40;;;5.60;99.90;;;;;;5052317;28;20548;-38
2022/01/10 11:54:22;;;;;;;33.60;18.40;;;5.60;99.90;;;;;;5052079;28;20041;-37
2022/01/10 11:56:50;;;;;;;35.07;18.83;;;5.70;99.90;;;;;;5038600;28;20130;-37
2022/01/10 11:59:20;;;;;;;31.43;18.80;;;5.70;99.90;;;;;;5052676;28;20062;-38
2022/01/10 12:01:57;;;;;;;34.10;18.77;;;5.90;99.90;;;;;;5051720;28;20060;-37
2022/01/10 12:04:25;;;;;;;30.77;18.33;;;6.00;99.90;;;;;;5050861;28;20098;-38
2022/01/10 12:06:51;;;;;;;28.80;18.10;;;6.00;99.90;;;;;;5037914;28;20040;-37
2022/01/10 12:09:17;;;;;;;28.37;18.23;;;6.10;99.90;;;;;;5052670;28;20051;-37
2022/01/10 12:11:45;;;;;;;33.97;18.07;;;6.20;99.90;;;;;;5036709;28;20041;-37
2022/01/10 12:14:12;;;;;;;32.37;18.10;;;6.10;99.90;;;;;;5054902;28;20036;-38
2022/01/10 12:16:39;;;;;;;28.47;17.50;;;6.10;99.90;;;;;;5041987;28;20415;-37
2022/01/10 12:19:05;;;;;;;29.20;17.93;;;6.10;99.90;;;;;;5047072;28;20045;-38
2022/01/10 12:21:32;;;;;;;35.97;18.17;;;6.00;99.90;;;;;;5055367;28;20079;-36
2022/01/10 12:23:58;;;;;;;31.70;18.30;;;6.00;99.90;;;;;;5034281;28;20136;-38
2022/01/10 12:26:26;;;;;;;31.00;18.63;;;6.00;99.90;;;;;;5036012;28;20600;-37
2022/01/10 12:28:54;;;;;;;30.47;18.30;;;6.00;99.90;;;;;;5047350;28;20076;-38
2022/01/10 12:31:21;;;;;;;31.10;18.03;;;6.00;99.90;;;;;;5038574;28;20036;-38
2022/01/10 12:33:49;;;;;;;34.53;18.07;;;6.00;99.90;;;;;;5057901;28;20159;-36
2022/01/10 12:36:15;;;;;;;35.17;18.20;;;6.00;99.90;;;;;;5054025;28;20487;-37
2022/01/10 12:38:42;;;;;;;33.97;20.03;;;5.90;99.90;;;;;;5039729;28;20135;-37
2022/01/10 12:41:09;;;;;;;29.00;17.47;;;5.90;99.90;;;;;;5064474;28;20086;-37
2022/01/10 12:43:35;;;;;;;34.93;17.63;;;5.90;99.90;;;;;;5058557;28;20385;-38
2022/01/10 12:46:01;;;;;;;31.43;19.17;;;5.90;99.90;;;;;;5059638;28;20048;-37
2022/01/10 12:48:27;;;;;;;32.47;18.10;;;5.90;99.90;;;;;;5039890;28;20075;-37